Time;durP1;ratioP1;P1;durP2;ratioP2;P2;SDS_P1;SDS_P2;PMS_P1;PMS_P2;Temp;Humidity;BMP_temperature;BMP_pressure;BME280_temperature;BME280_humidity;BME280_pressure;Samples;Min_cycle;Max_cycle;Signal;HPM_P1;HPM_P2
2022/04/25 00:01:41;;;;;;;19.90;7.10;;;8.60;99.90;;;;;;5079323;28;20040;-85
2022/04/25 00:04:07;;;;;;;13.93;6.45;;;8.90;99.90;;;;;;5084579;22;20440;-85
2022/04/25 00:06:33;;;;;;;14.85;6.63;;;8.10;99.90;;;;;;5058720;28;20051;-84
2022/04/25 00:08:59;;;;;;;15.77;7.03;;;8.30;99.90;;;;;;5059520;28;20387;-84
2022/04/25 00:11:24;;;;;;;14.05;6.88;;;8.20;99.90;;;;;;5075490;28;20538;-86
2022/04/25 00:13:50;;;;;;;17.55;6.97;;;8.20;99.90;;;;;;5073967;22;20051;-85
2022/04/25 00:16:18;;;;;;;15.30;6.28;;;8.80;99.90;;;;;;5059392;28;20145;-86
2022/04/25 00:18:44;;;;;;;14.02;7.25;;;8.90;99.90;;;;;;5058288;28;20043;-85
2022/04/25 00:21:10;;;;;;;11.95;6.85;;;8.90;99.90;;;;;;5060489;28;20437;-85
2022/04/25 00:23:36;;;;;;;12.73;6.75;;;8.30;99.90;;;;;;5066091;22;20078;-85
2022/04/25 00:26:01;;;;;;;12.35;6.25;;;8.30;99.90;;;;;;5059487;28;20398;-86
2022/04/25 00:28:27;;;;;;;16.67;6.65;;;8.40;99.90;;;;;;5058814;28;20444;-85
2022/04/25 00:30:53;;;;;;;14.60;6.80;;;8.40;99.90;;;;;;5058625;28;20056;-86
2022/04/25 00:33:19;;;;;;;13.50;6.43;;;8.40;99.90;;;;;;5042344;28;20441;-86
2022/04/25 00:35:44;;;;;;;15.15;7.35;;;8.50;99.90;;;;;;5042264;28;20045;-85
2022/04/25 00:38:10;;;;;;;15.23;7.15;;;9.20;99.90;;;;;;5041840;28;20547;-86
2022/04/25 00:40:36;;;;;;;16.75;6.90;;;8.40;99.90;;;;;;5056436;22;20048;-86
2022/04/25 00:43:02;;;;;;;15.85;7.05;;;8.50;99.90;;;;;;5061893;28;20118;-86
2022/04/25 00:45:32;;;;;;;15.30;6.75;;;8.80;99.90;;;;;;5062204;28;20056;-86
2022/04/25 00:47:58;;;;;;;14.50;7.40;;;9.00;99.90;;;;;;5098003;22;20053;-85
2022/04/25 00:50:24;;;;;;;15.02;7.30;;;8.40;99.90;;;;;;5059306;28;20036;-85
2022/04/25 00:52:50;;;;;;;13.60;7.07;;;8.80;99.90;;;;;;5058169;28;20399;-85
2022/04/25 00:55:16;;;;;;;19.02;7.70;;;9.20;99.90;;;;;;5059200;28;20463;-86
2022/04/25 00:57:42;;;;;;;12.63;7.00;;;8.60;99.90;;;;;;5079692;22;20078;-85
2022/04/25 01:00:10;;;;;;;16.40;7.95;;;9.00;99.90;;;;;;5085830;22;20071;-86
2022/04/25 01:02:37;;;;;;;14.05;7.40;;;8.20;99.90;;;;;;5071493;22;20154;-87
2022/04/25 01:05:04;;;;;;;16.33;7.32;;;8.40;99.90;;;;;;5084818;22;20131;-86
2022/04/25 01:07:31;;;;;;;15.93;8.32;;;8.10;99.90;;;;;;5086737;22;20048;-85
2022/04/25 01:10:05;;;;;;;13.30;7.90;;;8.50;99.90;;;;;;5092343;22;20079;31
2022/04/25 01:12:31;;;;;;;19.25;8.68;;;8.00;99.90;;;;;;5036278;28;20061;-85
2022/04/25 01:15:11;;;;;;;15.18;8.73;;;8.50;99.90;;;;;;5097864;22;20052;-85
2022/04/25 01:17:38;;;;;;;17.27;8.15;;;7.90;99.90;;;;;;5077889;28;20047;-85
2022/04/25 01:20:05;;;;;;;16.63;8.00;;;8.70;99.90;;;;;;5084220;22;20055;-86
2022/04/25 01:22:51;;;;;;;18.75;9.35;;;8.00;99.90;;;;;;5078317;28;20044;-85
2022/04/25 01:28:04;;;;;;;18.65;9.07;;;8.00;99.90;;;;;;5057533;28;19920;-85
2022/04/25 01:30:32;;;;;;;14.73;8.00;;;8.00;99.90;;;;;;5054331;22;20400;-85
2022/04/25 01:33:00;;;;;;;14.55;8.02;;;8.60;99.90;;;;;;5036467;28;20199;-84
2022/04/25 01:35:27;;;;;;;14.20;8.13;;;8.00;99.90;;;;;;5058254;22;20048;-85
2022/04/25 01:37:53;;;;;;;17.58;8.38;;;8.30;99.90;;;;;;5122867;22;20511;-85
2022/04/25 01:40:19;;;;;;;19.02;8.63;;;7.90;99.90;;;;;;5066508;22;20082;-85
2022/04/25 01:42:44;;;;;;;16.70;8.63;;;8.00;99.90;;;;;;5077428;28;20048;-86
2022/04/25 01:45:10;;;;;;;18.92;9.20;;;8.70;99.90;;;;;;5077295;28;20048;-85
2022/04/25 01:47:37;;;;;;;16.00;9.02;;;7.90;99.90;;;;;;5101820;22;20098;-85
2022/04/25 01:50:03;;;;;;;17.00;8.93;;;8.00;99.90;;;;;;5078944;22;20080;-85
2022/04/25 01:52:31;;;;;;;17.70;9.18;;;7.90;99.90;;;;;;5058034;28;20139;-86
2022/04/25 01:54:58;;;;;;;15.77;8.93;;;8.10;99.90;;;;;;5065331;22;20052;-85
2022/04/25 01:57:24;;;;;;;20.92;9.57;;;7.90;99.90;;;;;;5057282;28;20087;-85
2022/04/25 01:59:51;;;;;;;19.63;9.52;;;7.80;99.90;;;;;;5073767;28;20050;-85
2022/04/25 02:02:18;;;;;;;16.33;9.52;;;7.90;99.90;;;;;;5073518;28;20040;-84
2022/04/25 02:04:47;;;;;;;21.23;10.18;;;7.90;99.90;;;;;;5057257;28;20147;-85
2022/04/25 02:07:12;;;;;;;21.35;10.60;;;7.40;99.90;;;;;;5074255;28;20067;-84
2022/04/25 02:09:39;;;;;;;22.13;11.77;;;7.50;99.90;;;;;;5057278;28;20127;-84
2022/04/25 02:12:06;;;;;;;26.50;11.48;;;7.30;99.90;;;;;;5040332;28;20044;-84
2022/04/25 02:14:32;;;;;;;24.58;12.43;;;7.30;99.90;;;;;;5074246;28;20044;-84
2022/04/25 02:17:01;;;;;;;23.88;11.60;;;7.20;99.90;;;;;;5056740;28;20044;-85
2022/04/25 02:19:28;;;;;;;24.90;11.73;;;7.30;99.90;;;;;;5073462;28;20071;-85
2022/04/25 02:21:55;;;;;;;22.48;11.45;;;7.50;99.90;;;;;;5069160;22;20136;-84
2022/04/25 02:24:21;;;;;;;23.85;11.65;;;7.70;99.90;;;;;;5056726;28;20044;-85
2022/04/25 02:26:48;;;;;;;28.88;12.77;;;7.10;99.90;;;;;;5073603;28;20042;-85
2022/04/25 02:29:14;;;;;;;22.83;12.52;;;7.60;99.90;;;;;;5056965;28;20040;-84
2022/04/25 02:31:40;;;;;;;25.05;12.85;;;7.50;99.90;;;;;;5073175;28;20076;-85
2022/04/25 02:34:06;;;;;;;29.08;12.27;;;7.30;99.90;;;;;;5108763;22;20113;-85
2022/04/25 02:36:32;;;;;;;27.83;13.13;;;7.10;99.90;;;;;;5105717;22;20056;-85
2022/04/25 02:38:57;;;;;;;23.50;12.85;;;7.70;99.90;;;;;;5087619;22;20502;-84
2022/04/25 02:41:23;;;;;;;22.58;12.00;;;7.10;99.90;;;;;;5057129;28;20383;-85
2022/04/25 02:43:48;;;;;;;27.10;12.98;;;7.90;99.90;;;;;;5056219;28;20110;-84
2022/04/25 02:46:16;;;;;;;27.23;12.88;;;7.20;99.90;;;;;;5103518;22;20136;-85
2022/04/25 02:48:46;;;;;;;24.27;11.50;;;7.10;99.90;;;;;;5102653;22;20487;-84
2022/04/25 02:51:14;;;;;;;22.45;12.07;;;7.50;99.90;;;;;;5093389;22;20058;-85
2022/04/25 02:53:39;;;;;;;27.00;11.40;;;7.60;99.90;;;;;;5086365;22;20114;-85
2022/04/25 02:56:06;;;;;;;21.95;11.15;;;7.10;99.90;;;;;;5077317;28;20056;-85
2022/04/25 02:58:35;;;;;;;22.08;12.02;;;7.10;99.90;;;;;;5078747;28;20085;-85
2022/04/25 03:01:04;;;;;;;20.75;10.63;;;7.70;99.90;;;;;;5098355;28;20062;-85
2022/04/25 03:03:33;;;;;;;20.35;11.15;;;7.00;99.90;;;;;;5076532;28;20479;-85
2022/04/25 03:05:59;;;;;;;20.95;10.65;;;7.60;99.90;;;;;;5076467;28;20075;-85
2022/04/25 03:08:25;;;;;;;21.80;10.65;;;6.90;99.90;;;;;;5076686;28;20263;-85
2022/04/25 03:10:52;;;;;;;25.52;11.77;;;6.90;99.90;;;;;;5076240;28;20472;-85
2022/04/25 03:13:19;;;;;;;20.08;10.73;;;6.80;99.90;;;;;;5076176;28;20459;-84
2022/04/25 03:15:47;;;;;;;21.35;10.15;;;7.40;99.90;;;;;;5075862;28;20055;-84
2022/04/25 03:18:15;;;;;;;20.13;10.75;;;6.70;99.90;;;;;;5076425;28;20040;-85
2022/04/25 03:20:45;;;;;;;21.33;10.65;;;7.30;99.90;;;;;;5075916;28;20539;-85
2022/04/25 03:23:11;;;;;;;20.38;10.88;;;6.80;99.90;;;;;;5076981;28;20044;-84
2022/04/25 03:25:39;;;;;;;22.48;10.88;;;7.10;99.90;;;;;;5089294;28;20093;-85
2022/04/25 03:28:05;;;;;;;21.50;11.30;;;6.50;99.90;;;;;;5076345;28;20074;-85
2022/04/25 03:30:30;;;;;;;23.42;11.07;;;6.50;99.90;;;;;;5093313;28;20044;-85
2022/04/25 03:32:56;;;;;;;23.30;10.98;;;6.50;99.90;;;;;;5083522;22;20052;-85
2022/04/25 03:35:22;;;;;;;20.08;10.85;;;6.70;99.90;;;;;;5075810;28;20046;-85
2022/04/25 03:37:50;;;;;;;21.52;11.10;;;7.00;99.90;;;;;;5075934;28;20044;-85
2022/04/25 03:40:15;;;;;;;21.17;10.77;;;6.40;99.90;;;;;;5094130;28;20395;-85
2022/04/25 03:42:44;;;;;;;23.17;11.23;;;6.40;99.90;;;;;;5093863;28;20045;-85
2022/04/25 03:45:11;;;;;;;20.45;10.93;;;6.40;99.90;;;;;;5075739;28;20044;-84
2022/04/25 03:47:38;;;;;;;21.10;11.02;;;6.40;99.90;;;;;;5094268;28;20575;-84
2022/04/25 03:50:08;;;;;;;24.73;10.93;;;6.30;99.90;;;;;;5093108;28;20048;-85
2022/04/25 03:52:38;;;;;;;20.90;11.57;;;6.30;99.90;;;;;;5093726;28;20048;-85
2022/04/25 03:57:50;;;;;;;22.23;11.68;;;6.30;99.90;;;;;;5096275;28;20048;-85
2022/04/25 04:00:15;;;;;;;23.30;10.93;;;6.30;99.90;;;;;;5079518;28;20051;-84
2022/04/25 04:02:41;;;;;;;20.38;11.02;;;7.20;99.90;;;;;;5098192;28;20032;-85
2022/04/25 04:05:07;;;;;;;19.90;11.00;;;6.30;99.90;;;;;;5097874;28;20173;-85
2022/04/25 04:07:33;;;;;;;19.48;11.05;;;6.20;99.90;;;;;;5096424;28;20048;-85
2022/04/25 04:09:59;;;;;;;20.50;10.80;;;6.30;99.90;;;;;;5097288;28;20044;-85
2022/04/25 04:12:29;;;;;;;21.42;10.57;;;6.80;99.90;;;;;;5096245;28;20532;-85
2022/04/25 04:14:55;;;;;;;22.95;11.57;;;6.20;99.90;;;;;;5079509;28;20048;-85
2022/04/25 04:17:21;;;;;;;19.48;11.45;;;6.20;99.90;;;;;;5097565;28;20036;-85
2022/04/25 04:19:47;;;;;;;21.80;11.50;;;6.30;99.90;;;;;;5078718;28;20047;-85
2022/04/25 04:22:12;;;;;;;19.73;10.60;;;7.00;99.90;;;;;;5096283;28;20040;-85
2022/04/25 04:24:38;;;;;;;19.73;11.15;;;6.80;99.90;;;;;;5096519;28;20031;-85
2022/04/25 04:27:06;;;;;;;22.27;11.88;;;6.40;99.90;;;;;;5095765;28;20040;-85
2022/04/25 04:29:33;;;;;;;30.90;11.75;;;6.60;99.90;;;;;;5096860;28;20036;-85
2022/04/25 04:32:05;;;;;;;21.33;11.73;;;6.50;99.90;;;;;;5095660;28;20064;-85
2022/04/25 04:34:31;;;;;;;24.45;11.32;;;6.50;99.90;;;;;;5095611;28;20047;-85
2022/04/25 04:36:57;;;;;;;23.13;12.32;;;6.60;99.90;;;;;;5096822;28;20036;-85
2022/04/25 04:39:22;;;;;;;20.83;11.05;;;6.50;99.90;;;;;;5078935;28;20044;-85
2022/04/25 04:41:48;;;;;;;21.63;11.18;;;6.70;99.90;;;;;;5096052;28;20044;-85
2022/04/25 04:44:14;;;;;;;19.45;11.25;;;7.50;99.90;;;;;;5095429;28;20047;-85
2022/04/25 04:46:41;;;;;;;22.73;12.18;;;6.80;99.90;;;;;;5095594;28;20486;-85
2022/04/25 04:49:06;;;;;;;21.10;11.05;;;6.80;99.90;;;;;;5095502;28;20047;-85
2022/04/25 04:51:32;;;;;;;21.25;11.57;;;6.90;99.90;;;;;;5095828;28;20058;-85
2022/04/25 04:54:02;;;;;;;21.83;11.55;;;7.10;99.90;;;;;;5095270;28;20048;-85
2022/04/25 04:56:29;;;;;;;22.67;11.70;;;7.00;99.90;;;;;;5096534;28;20048;-85
2022/04/25 04:58:55;;;;;;;20.70;10.77;;;7.30;99.90;;;;;;5095883;28;20081;-85
2022/04/25 05:01:21;;;;;;;19.33;10.38;;;7.00;99.90;;;;;;5095687;28;20063;-85
2022/04/25 05:03:46;;;;;;;23.02;10.63;;;7.10;99.90;;;;;;5095219;28;20048;-85
2022/04/25 05:06:12;;;;;;;20.27;10.70;;;7.10;99.90;;;;;;5095131;28;20051;-85
2022/04/25 05:08:39;;;;;;;17.77;10.52;;;7.10;99.90;;;;;;5078202;28;20044;-85
2022/04/25 05:11:06;;;;;;;17.92;10.13;;;7.20;99.90;;;;;;5095200;28;20481;-85
2022/04/25 05:13:32;;;;;;;18.23;10.43;;;7.20;99.90;;;;;;5095905;28;20494;-85
2022/04/25 05:15:58;;;;;;;20.17;10.27;;;7.20;99.90;;;;;;5078213;28;20127;-85
2022/04/25 05:18:24;;;;;;;19.48;10.48;;;7.50;99.90;;;;;;5096067;28;20116;-85
2022/04/25 05:20:50;;;;;;;17.67;10.23;;;7.40;99.90;;;;;;5094467;28;20051;-85
2022/04/25 05:23:16;;;;;;;20.10;10.32;;;7.40;99.90;;;;;;5079775;28;20506;-84
2022/04/25 05:25:42;;;;;;;20.70;10.90;;;7.50;99.90;;;;;;5087073;28;20043;-85
2022/04/25 05:28:08;;;;;;;20.50;10.80;;;7.60;99.90;;;;;;5096292;28;20036;-86
2022/04/25 05:30:34;;;;;;;19.70;10.00;;;7.70;99.90;;;;;;5095540;28;20047;-85
2022/04/25 05:33:03;;;;;;;19.05;10.18;;;7.70;99.90;;;;;;5095392;28;20089;-86
2022/04/25 05:35:33;;;;;;;18.63;9.68;;;7.80;99.90;;;;;;5095506;28;20387;-86
2022/04/25 05:38:00;;;;;;;18.15;9.32;;;8.00;99.90;;;;;;5095446;28;20493;-85
2022/04/25 05:40:27;;;;;;;17.98;9.48;;;7.80;99.90;;;;;;5095291;28;20067;-84
2022/04/25 05:42:55;;;;;;;18.05;9.70;;;7.90;99.90;;;;;;5095687;28;20491;-85
2022/04/25 05:45:22;;;;;;;17.65;10.52;;;7.90;99.90;;;;;;5095870;28;20079;-85
2022/04/25 05:47:50;;;;;;;17.52;9.90;;;7.90;99.90;;;;;;5094147;28;20495;-85
2022/04/25 05:53:02;;;;;;;15.07;9.93;;;8.00;99.90;;;;;;5094268;28;20487;-86
2022/04/25 05:55:28;;;;;;;19.45;9.57;;;7.90;99.90;;;;;;5094237;28;20048;-85
2022/04/25 05:57:54;;;;;;;20.10;10.43;;;8.00;99.90;;;;;;5094238;28;20044;-85
2022/04/25 06:00:20;;;;;;;18.85;10.38;;;7.90;99.90;;;;;;5095166;28;20055;-86
2022/04/25 06:02:47;;;;;;;16.88;10.13;;;7.90;99.90;;;;;;5093749;28;20086;-85
2022/04/25 06:05:15;;;;;;;16.73;9.80;;;8.00;99.90;;;;;;5094937;28;20093;-85
2022/04/25 06:07:45;;;;;;;21.92;9.63;;;7.90;99.90;;;;;;5093646;28;20044;-85
2022/04/25 06:10:13;;;;;;;15.63;9.73;;;7.90;99.90;;;;;;5094902;28;20043;-85
2022/04/25 06:12:47;;;;;;;18.42;10.52;;;8.40;99.90;;;;;;5094872;28;20047;-85
2022/04/25 06:15:14;;;;;;;17.60;9.77;;;7.80;99.90;;;;;;5093868;28;20052;-85
2022/04/25 06:17:39;;;;;;;18.55;9.70;;;7.80;99.90;;;;;;5095657;28;20119;-85
2022/04/25 06:20:06;;;;;;;15.50;9.48;;;7.80;99.90;;;;;;5095471;28;20067;-85
2022/04/25 06:22:32;;;;;;;17.70;10.30;;;7.80;99.90;;;;;;5094254;28;20036;-85
2022/04/25 06:24:58;;;;;;;20.35;11.18;;;7.80;99.90;;;;;;5093212;28;20483;-85
2022/04/25 06:27:24;;;;;;;21.00;11.10;;;7.80;99.90;;;;;;5094022;28;20047;-85
2022/04/25 06:29:52;;;;;;;19.02;10.05;;;7.90;99.90;;;;;;5093308;28;20044;-85
2022/04/25 06:32:19;;;;;;;18.23;10.38;;;7.90;99.90;;;;;;5093495;28;20094;-85
2022/04/25 06:34:45;;;;;;;16.00;10.55;;;7.90;99.90;;;;;;5094570;28;20123;-85
2022/04/25 06:37:11;;;;;;;17.60;10.38;;;8.00;99.90;;;;;;5094377;28;20082;-85
2022/04/25 06:39:37;;;;;;;17.80;10.25;;;7.90;99.90;;;;;;5093289;28;20464;-85
2022/04/25 06:42:04;;;;;;;19.73;10.68;;;7.90;99.90;;;;;;5093292;28;20080;-85
2022/04/25 06:44:31;;;;;;;17.20;10.70;;;7.80;99.90;;;;;;5094482;28;20074;-85
2022/04/25 06:46:57;;;;;;;18.63;9.90;;;7.80;99.90;;;;;;5094605;28;20055;-85
2022/04/25 06:49:25;;;;;;;19.48;10.75;;;7.80;99.90;;;;;;5093133;28;20433;-85
2022/04/25 06:51:53;;;;;;;16.70;10.13;;;7.80;99.90;;;;;;5093214;28;20434;-84
2022/04/25 06:54:20;;;;;;;17.05;10.80;;;7.70;99.90;;;;;;5093093;28;20076;-85
2022/04/25 06:56:46;;;;;;;17.35;10.98;;;7.80;99.90;;;;;;5093091;28;20036;-85
2022/04/25 06:59:12;;;;;;;19.50;10.55;;;7.80;99.90;;;;;;5094025;28;20078;-85
2022/04/25 07:01:39;;;;;;;20.42;11.57;;;7.80;99.90;;;;;;5093396;28;20040;-84
2022/04/25 07:04:08;;;;;;;20.70;11.13;;;8.30;99.90;;;;;;5094269;28;20048;-85
2022/04/25 07:06:34;;;;;;;18.45;11.25;;;7.80;99.90;;;;;;5093975;28;20413;-84
2022/04/25 07:09:00;;;;;;;18.08;11.18;;;7.80;99.90;;;;;;5094556;28;20048;-85
2022/04/25 07:11:25;;;;;;;18.42;11.18;;;7.80;99.90;;;;;;5093073;28;20048;-85
2022/04/25 07:13:51;;;;;;;19.35;10.73;;;8.00;99.90;;;;;;5092634;28;20051;-85
2022/04/25 07:16:17;;;;;;;17.10;10.23;;;7.80;99.90;;;;;;5093008;28;20068;-85
2022/04/25 07:18:43;;;;;;;19.52;10.98;;;7.80;99.90;;;;;;5092488;28;20504;-85
2022/04/25 07:29:22;;;;;;;18.63;10.50;;;8.00;99.90;;;;;;5093496;28;20054;-85
2022/04/25 07:31:51;;;;;;;18.25;10.45;;;8.00;99.90;;;;;;5091729;28;20418;-85
2022/04/25 07:34:19;;;;;;;13.88;9.40;;;7.90;99.90;;;;;;5093828;28;20116;-85
2022/04/25 07:36:51;;;;;;;15.13;9.52;;;8.00;99.90;;;;;;5092405;28;20040;-85
2022/04/25 07:39:18;;;;;;;15.40;9.70;;;8.10;99.90;;;;;;5093572;28;20048;-87
2022/04/25 07:41:44;;;;;;;17.10;9.85;;;8.40;99.90;;;;;;5092804;28;20044;-85
2022/04/25 07:44:10;;;;;;;16.20;9.25;;;8.10;99.90;;;;;;5093757;28;20044;-85
2022/04/25 07:46:36;;;;;;;19.10;9.73;;;8.20;99.90;;;;;;5092348;28;20051;-85
2022/04/25 07:49:03;;;;;;;15.35;9.93;;;8.20;99.90;;;;;;5093418;28;20044;-85
2022/04/25 07:51:28;;;;;;;17.10;9.77;;;8.30;99.90;;;;;;5092887;28;20494;-85
2022/04/25 07:53:54;;;;;;;18.00;9.60;;;8.30;99.90;;;;;;5093157;28;20125;-85
2022/04/25 07:56:20;;;;;;;17.38;9.75;;;8.40;99.90;;;;;;5092141;28;20143;-85
2022/04/25 07:58:45;;;;;;;14.18;9.27;;;8.50;99.90;;;;;;5092326;28;20089;-84
2022/04/25 08:01:11;;;;;;;13.93;8.43;;;8.40;99.90;;;;;;5092178;28;20384;-85
2022/04/25 08:03:37;;;;;;;18.48;9.13;;;8.50;99.90;;;;;;5092219;28;20062;-85
2022/04/25 08:06:04;;;;;;;15.30;9.43;;;8.90;99.90;;;;;;5093254;28;20123;-85
2022/04/25 08:08:32;;;;;;;19.02;9.85;;;8.50;99.90;;;;;;5092125;28;20056;-85
2022/04/25 08:10:58;;;;;;;17.90;9.20;;;8.50;99.90;;;;;;5093494;28;20376;-84
2022/04/25 08:18:52;;;;;;;16.20;9.70;;;8.50;99.90;;;;;;5093343;28;20048;-85
2022/04/25 08:21:18;;;;;;;18.95;10.23;;;8.60;99.90;;;;;;5091850;28;20040;-85
2022/04/25 08:23:45;;;;;;;16.45;9.52;;;8.40;99.90;;;;;;5093402;28;20029;-85
2022/04/25 08:26:12;;;;;;;15.63;10.18;;;8.40;99.90;;;;;;5093318;28;20467;-85
2022/04/25 08:28:37;;;;;;;16.98;10.43;;;8.50;99.90;;;;;;5092389;28;20101;-86
2022/04/25 08:31:04;;;;;;;18.15;10.40;;;8.50;99.90;;;;;;5091689;28;20426;-86
2022/04/25 08:33:30;;;;;;;16.90;9.65;;;8.50;99.90;;;;;;5092766;28;20048;-85
2022/04/25 08:35:58;;;;;;;16.88;9.82;;;9.30;99.90;;;;;;5077401;28;20067;-85
2022/04/25 08:38:24;;;;;;;18.02;9.90;;;9.10;99.90;;;;;;5093687;28;20047;-85
2022/04/25 08:40:51;;;;;;;17.17;10.27;;;8.60;99.90;;;;;;5091989;28;20040;-85
2022/04/25 08:43:18;;;;;;;16.65;10.13;;;8.60;99.90;;;;;;5096046;28;20040;-86
2022/04/25 08:45:45;;;;;;;16.23;8.77;;;8.60;99.90;;;;;;5082968;28;20043;-85
2022/04/25 08:48:10;;;;;;;14.00;8.73;;;9.30;99.90;;;;;;5104195;28;20069;-86
2022/04/25 08:50:39;;;;;;;16.27;9.25;;;8.70;99.90;;;;;;5092725;28;20051;-85
2022/04/25 08:53:06;;;;;;;17.17;8.85;;;8.70;99.90;;;;;;5068440;28;20040;-86
2022/04/25 08:55:32;;;;;;;16.20;8.60;;;8.70;99.90;;;;;;5079206;28;20044;-85
2022/04/25 08:57:59;;;;;;;15.15;8.63;;;8.50;99.90;;;;;;5079013;28;20526;-85
2022/04/25 09:00:25;;;;;;;14.18;8.80;;;9.00;99.90;;;;;;5095300;28;20036;-85
2022/04/25 09:02:52;;;;;;;14.63;8.70;;;8.50;99.90;;;;;;5087690;22;20372;-84
2022/04/25 09:05:18;;;;;;;16.02;9.02;;;8.90;99.90;;;;;;5093757;28;20423;-85
2022/04/25 09:07:44;;;;;;;15.57;8.80;;;8.80;99.90;;;;;;5095440;28;20433;-85
2022/04/25 09:10:13;;;;;;;14.75;9.07;;;8.60;99.90;;;;;;5095523;28;20067;-85
2022/04/25 09:12:42;;;;;;;14.15;8.65;;;9.10;99.90;;;;;;5079042;28;20123;-85
2022/04/25 09:15:09;;;;;;;16.48;10.13;;;8.30;99.90;;;;;;5084266;28;20079;-85
2022/04/25 09:17:38;;;;;;;18.25;9.95;;;9.20;99.90;;;;;;5079208;28;20093;-85
2022/04/25 09:20:09;;;;;;;18.65;10.00;;;8.40;99.90;;;;;;5096262;28;20426;-84
2022/04/25 09:22:37;;;;;;;22.15;10.38;;;8.20;99.90;;;;;;5095221;28;20056;-84
2022/04/25 09:25:11;;;;;;;19.73;10.20;;;8.20;99.90;;;;;;5096140;28;20509;-85
2022/04/25 09:27:38;;;;;;;20.30;10.60;;;8.20;99.90;;;;;;5095052;28;20051;-84
2022/04/25 09:30:14;;;;;;;19.73;10.43;;;8.30;99.90;;;;;;5094640;28;20040;-84
2022/04/25 09:32:40;;;;;;;18.88;10.43;;;8.30;99.90;;;;;;5078581;28;20047;-84
2022/04/25 09:35:25;;;;;;;18.33;10.43;;;9.30;99.90;;;;;;5077882;28;20044;-85
2022/04/25 09:37:51;;;;;;;18.10;10.57;;;8.40;99.90;;;;;;5094673;28;20044;-85
2022/04/25 09:40:24;;;;;;;18.48;10.43;;;8.80;99.90;;;;;;5078537;28;20048;-84
2022/04/25 09:43:14;;;;;;;21.05;11.63;;;8.50;99.90;;;;;;5078566;28;20055;-84
2022/04/25 09:45:42;;;;;;;16.75;11.23;;;8.50;99.90;;;;;;5085439;22;20082;-84
2022/04/25 09:48:13;;;;;;;17.83;10.70;;;8.50;99.90;;;;;;5077665;28;20372;-84
2022/04/25 09:50:38;;;;;;;18.23;11.20;;;8.70;99.90;;;;;;5077681;28;20098;-84
2022/04/25 09:53:06;;;;;;;20.00;11.30;;;8.60;99.90;;;;;;5093894;28;20075;-85
2022/04/25 09:55:37;;;;;;;18.48;10.98;;;8.50;99.90;;;;;;5095169;22;20139;-84
2022/04/25 09:58:19;;;;;;;20.20;11.38;;;8.50;99.90;;;;;;5077707;28;20044;-85
2022/04/25 10:00:45;;;;;;;20.45;11.20;;;8.50;99.90;;;;;;5095461;28;20126;-85
2022/04/25 10:03:14;;;;;;;21.80;11.15;;;8.70;99.90;;;;;;5077841;28;20061;-85
2022/04/25 10:05:52;;;;;;;22.63;11.88;;;8.90;99.90;;;;;;5077700;28;20082;-85
2022/04/25 10:08:19;;;;;;;20.13;11.57;;;8.50;99.90;;;;;;5077548;28;20048;-84
2022/04/25 10:10:48;;;;;;;21.38;12.25;;;8.60;99.90;;;;;;5085286;22;20121;-84
2022/04/25 10:13:15;;;;;;;24.20;12.73;;;8.60;99.90;;;;;;5077088;28;20044;-84
2022/04/25 10:15:42;;;;;;;22.40;12.80;;;9.50;99.90;;;;;;5077063;28;20048;-84
2022/04/25 10:18:09;;;;;;;22.10;12.23;;;9.40;99.90;;;;;;5077265;28;20043;-84
2022/04/25 10:20:36;;;;;;;20.67;11.40;;;8.80;99.90;;;;;;5076656;28;20083;-85
2022/04/25 10:23:10;;;;;;;20.50;12.10;;;8.80;99.90;;;;;;5077737;28;20382;-85
2022/04/25 10:25:46;;;;;;;17.80;10.98;;;8.90;99.90;;;;;;5076889;28;20051;-84
2022/04/25 10:28:44;;;;;;;18.60;10.70;;;8.90;99.90;;;;;;5091007;22;20048;-84
2022/04/25 10:31:41;;;;;;;17.85;10.70;;;8.80;99.90;;;;;;5110822;22;20048;-85
2022/04/25 10:34:08;;;;;;;16.33;9.95;;;9.30;99.90;;;;;;5097083;28;20044;-84
2022/04/25 10:36:37;;;;;;;17.63;9.80;;;8.80;99.90;;;;;;5097323;28;20035;-84
2022/04/25 10:39:15;;;;;;;16.98;10.35;;;8.80;99.90;;;;;;5114533;28;20044;-83
2022/04/25 10:44:29;;;;;;;17.38;10.50;;;9.10;99.90;;;;;;5109042;22;20070;-84
2022/04/25 10:47:09;;;;;;;18.90;10.23;;;8.70;99.90;;;;;;5105252;22;20487;-85
2022/04/25 10:49:53;;;;;;;15.77;9.98;;;8.70;99.90;;;;;;5107039;22;20051;-84
2022/04/25 10:52:34;;;;;;;17.05;9.95;;;8.60;99.90;;;;;;5098085;28;20045;-84
2022/04/25 10:55:36;;;;;;;18.85;11.07;;;8.60;99.90;;;;;;5121511;22;20040;-84
2022/04/25 10:58:01;;;;;;;20.45;11.02;;;8.60;99.90;;;;;;5074295;28;20388;-84
2022/04/25 11:00:36;;;;;;;16.33;9.02;;;8.90;99.90;;;;;;5056780;28;20051;-84
2022/04/25 11:03:20;;;;;;;14.93;8.20;;;9.50;99.90;;;;;;5097481;22;20052;-84
2022/04/25 11:05:51;;;;;;;16.05;9.27;;;8.50;99.90;;;;;;5115091;22;20490;-84
2022/04/25 11:08:19;;;;;;;15.57;8.25;;;8.50;99.90;;;;;;5076978;28;20130;-84
2022/04/25 11:10:48;;;;;;;15.60;8.50;;;9.30;99.90;;;;;;5088199;22;20071;-84
2022/04/25 11:13:18;;;;;;;13.20;7.55;;;8.50;99.90;;;;;;5084216;22;20052;-84
2022/04/25 11:15:49;;;;;;;16.92;8.02;;;8.50;99.90;;;;;;5087262;22;20078;-84
2022/04/25 11:18:36;;;;;;;13.75;8.45;;;8.70;99.90;;;;;;5094663;22;20066;-84
2022/04/25 11:21:07;;;;;;;15.27;8.27;;;8.50;99.90;;;;;;5097105;28;20044;-85
2022/04/25 11:23:49;;;;;;;12.65;7.57;;;8.60;99.90;;;;;;5097467;28;20482;-84
2022/04/25 11:26:20;;;;;;;13.63;7.90;;;8.60;99.90;;;;;;5101573;22;20032;-85
2022/04/25 11:29:08;;;;;;;11.07;7.22;;;8.50;99.90;;;;;;5095818;22;20129;-84
2022/04/25 11:31:40;;;;;;;14.00;8.15;;;8.50;99.90;;;;;;5101502;22;20070;-84
2022/04/25 11:34:11;;;;;;;14.13;8.07;;;8.50;99.90;;;;;;5076764;28;20044;-84
2022/04/25 11:36:40;;;;;;;15.85;8.98;;;8.70;99.90;;;;;;5093290;28;20059;-83
2022/04/25 11:41:50;;;;;;;21.90;10.40;;;9.00;99.90;;;;;;5094152;28;20127;-84
2022/04/25 11:44:16;;;;;;;20.58;10.00;;;8.40;99.90;;;;;;5092652;28;20123;-84
2022/04/25 11:46:43;;;;;;;14.35;9.23;;;8.40;99.90;;;;;;5092525;28;20040;-84
2022/04/25 11:49:09;;;;;;;17.85;9.65;;;8.30;99.90;;;;;;5092630;28;20125;-84
2022/04/25 11:51:39;;;;;;;19.50;10.30;;;8.90;99.90;;;;;;5092681;28;20491;-85
2022/04/25 11:54:06;;;;;;;17.50;10.77;;;8.20;99.90;;;;;;5094129;28;20028;-85
2022/04/25 11:56:35;;;;;;;19.80;11.23;;;8.20;99.90;;;;;;5092739;28;20398;-85
2022/04/25 11:59:11;;;;;;;21.20;12.00;;;8.20;99.90;;;;;;5093260;28;20044;-85
2022/04/25 12:01:50;;;;;;;16.90;10.13;;;8.30;99.90;;;;;;5092911;28;20047;-85
2022/04/25 12:04:30;;;;;;;19.25;10.63;;;8.30;99.90;;;;;;5093601;28;20514;-85
2022/04/25 12:07:06;;;;;;;18.40;10.82;;;8.40;99.90;;;;;;5092844;28;20052;-85
2022/04/25 12:15:36;;;;;;;19.52;10.30;;;8.70;99.90;;;;;;5093694;28;20048;-86
2022/04/25 12:18:28;;;;;;;17.17;10.07;;;9.00;99.90;;;;;;5095868;28;20141;-86
2022/04/25 12:21:05;;;;;;;16.75;10.00;;;9.00;99.90;;;;;;5097194;28;20119;-85
2022/04/25 12:23:33;;;;;;;16.58;10.32;;;9.20;99.90;;;;;;5097280;28;20060;-85
2022/04/25 12:26:03;;;;;;;18.05;11.18;;;9.50;99.90;;;;;;5095783;28;20040;-85
2022/04/25 12:28:31;;;;;;;16.77;10.23;;;9.80;99.90;;;;;;5097458;28;20051;-85
2022/04/25 12:31:09;;;;;;;16.95;9.50;;;10.60;99.90;;;;;;5096667;28;20056;-85
2022/04/25 12:33:41;;;;;;;14.65;9.20;;;10.40;99.90;;;;;;5096799;28;20484;-85
2022/04/25 12:36:21;;;;;;;13.95;7.93;;;10.70;99.90;;;;;;5095669;28;20092;-85
2022/04/25 12:39:03;;;;;;;13.07;8.45;;;10.90;99.90;;;;;;5095937;28;20425;-86
2022/04/25 12:41:35;;;;;;;14.20;8.02;;;11.30;99.90;;;;;;5096901;28;20483;-86
2022/04/25 12:44:10;;;;;;;10.52;7.88;;;11.40;99.90;;;;;;5079161;28;20079;-85
2022/04/25 12:46:50;;;;;;;12.13;7.90;;;11.40;99.90;;;;;;5105514;28;20108;-85
2022/04/25 12:49:20;;;;;;;12.63;7.05;;;11.50;99.90;;;;;;5107516;28;20479;-85
2022/04/25 12:51:50;;;;;;;12.65;7.15;;;11.60;99.90;;;;;;5097910;28;20119;-84
2022/04/25 12:54:24;;;;;;;12.05;7.30;;;11.50;99.90;;;;;;5095961;28;20059;-85
2022/04/25 12:57:17;;;;;;;13.82;8.00;;;11.50;99.90;;;;;;5097245;28;20103;-85
2022/04/25 12:59:45;;;;;;;11.40;7.30;;;11.50;99.90;;;;;;5090434;28;20724;-85
2022/04/25 13:02:17;;;;;;;13.73;7.47;;;11.70;99.90;;;;;;5096799;28;20119;-85
2022/04/25 13:04:57;;;;;;;13.30;7.70;;;11.70;99.90;;;;;;5095682;28;20052;-85
2022/04/25 13:07:31;;;;;;;14.02;7.65;;;11.80;99.90;;;;;;5078624;28;20051;-85
2022/04/25 13:09:58;;;;;;;10.73;6.88;;;11.80;99.90;;;;;;5095727;28;20518;-85
2022/04/25 13:12:39;;;;;;;12.55;8.10;;;12.00;99.90;;;;;;5097471;28;20078;-84
2022/04/25 13:15:06;;;;;;;11.05;7.20;;;12.20;99.90;;;;;;5096181;28;20167;-84
2022/04/25 13:17:32;;;;;;;11.88;7.40;;;12.40;99.90;;;;;;5095658;28;20039;-85
2022/04/25 13:20:31;;;;;;;11.23;7.25;;;12.70;99.90;;;;;;5095292;28;20386;-84
2022/04/25 13:22:59;;;;;;;10.18;6.68;;;12.80;99.90;;;;;;5017261;28;20115;-85